Lima, OH (45807)

11:09 PM EDT on August 23, 2016 (GMT -0400)
northwest lima | | Change Station

Elev 879 ft 40.75 °N, 84.13 °W | Updated 5 minutes ago

Clear
Clear
72.5 °F
Feels Like 76 °F
N
1.1
Wind Variable Wind from SSE

Today
High -- | Low -- °F
--% Chance of Precip.
Yesterday
High -- | Low -- °F
Precip. -- in
Pressure 30.21 in
Visibility 10.0 miles
Clouds Clear
Heat Index 76 °F
Dew Point 59 °F
Humidity 62%
Rainfall 0.00 in
Snow Depth Not available.
6:55 AM 8:22 PM
Waning Gibbous, 62% visible
METAR KAOH 240253Z AUTO 14004KT 10SM CLR 19/16 A3022 RMK AO2 SLP229 T01890161 57004
Pressure 30.21 in
Visibility 10.0 miles
Clouds Clear
Heat Index 76 °F
Dew Point 59 °F
Humidity 62%
Rainfall 0.00 in
Snow Depth Not available.
6:55 AM 8:22 PM
Waning Gibbous, 62% visible
METAR KAOH 240253Z AUTO 14004KT 10SM CLR 19/16 A3022 RMK AO2 SLP229 T01890161 57004

10-Day Weather Forecast

Almanac

Astronomy

Aug. 23, 2016 Rise Set
Actual Time
Civil Twilight
Nautical Twilight
Astronomical Twilight
Moon
Length of Visible Light
Length of Day
Tomorrow will be .
, % of the Moon is Illuminated

Today's Extremes

State Highs State Lows

Community

WunderPhotos

Upload Photos

1,934,538 photos uploaded!

WunderBlog® & News

Nearby

Air Quality

  Air Quality AQ Index Pollutant
Not available.

Snow Depth

Station Depth Elevation

Earthquake Activity

City Distance Mag. Time & Date
Minimum magnitude displayed is 2.5.

Coastal Water Temperatures

Place Temperature

Stations

Nearby Weather Stations

Station Location Temp. Windchill Dew Point Humidity Wind Precip. Elev Updated Type
                   

Watches & Warnings

There are currently no watches in effect.